createdAt,value
2017-10-22T00:00:53.001Z,11.56
2017-10-22T00:01:53.001Z,11.53
2017-10-22T00:02:53.007Z,11.48
2017-10-22T00:03:53.003Z,11.45
2017-10-22T00:04:53.005Z,11.55
2017-10-22T00:05:53.004Z,11.43
2017-10-22T00:06:53.005Z,11.51
2017-10-22T00:07:53.006Z,11.44
2017-10-22T00:08:53.009Z,11.44
2017-10-22T00:09:53.009Z,11.41
2017-10-22T00:10:53.014Z,11.41
2017-10-22T00:11:53.009Z,11.38
2017-10-22T00:12:53.009Z,11.40
2017-10-22T00:13:53.013Z,11.34
2017-10-22T00:14:53.012Z,11.33
2017-10-22T00:15:53.012Z,11.30
2017-10-22T00:16:53.011Z,11.19
2017-10-22T00:17:53.013Z,11.20
2017-10-22T00:18:53.015Z,11.20
2017-10-22T00:19:53.015Z,11.20
2017-10-22T00:20:53.015Z,11.18
2017-10-22T00:21:53.016Z,11.12
2017-10-22T00:22:53.016Z,11.12
2017-10-22T00:23:53.016Z,11.10
2017-10-22T00:24:53.016Z,11.12
2017-10-22T00:25:53.016Z,11.10
2017-10-22T00:26:53.018Z,11.07
2017-10-22T00:27:53.018Z,11.01
2017-10-22T00:28:53.019Z,10.98
2017-10-22T00:29:53.022Z,11.07
2017-10-22T00:30:53.019Z,11.16
2017-10-22T00:31:53.020Z,11.10
2017-10-22T00:32:53.020Z,11.20
2017-10-22T00:33:53.021Z,11.25
2017-10-22T00:34:53.021Z,11.25
2017-10-22T00:35:53.019Z,11.23
2017-10-22T00:36:53.019Z,11.22
2017-10-22T00:37:53.024Z,11.16
2017-10-22T00:38:53.021Z,11.13
2017-10-22T00:39:53.024Z,11.22
2017-10-22T00:40:53.021Z,11.20
2017-10-22T00:41:53.023Z,11.23
2017-10-22T00:42:53.023Z,11.20
2017-10-22T00:43:53.022Z,11.19
2017-10-22T00:44:53.022Z,11.19
2017-10-22T00:45:53.025Z,11.22
2017-10-22T00:46:53.024Z,11.22
2017-10-22T00:47:53.024Z,11.19
2017-10-22T00:48:53.024Z,11.25
2017-10-22T00:49:53.026Z,11.33
2017-10-22T00:50:53.026Z,11.30
2017-10-22T00:51:53.035Z,11.27
2017-10-22T00:52:53.026Z,11.34
2017-10-22T00:53:53.026Z,11.41
2017-10-22T00:54:53.028Z,11.44
2017-10-22T00:55:53.027Z,11.41
2017-10-22T00:56:53.030Z,11.26
2017-10-22T00:57:53.028Z,11.26
2017-10-22T00:58:53.032Z,11.12
2017-10-22T00:59:53.029Z,11.02
2017-10-22T01:00:53.030Z,11.07
2017-10-22T01:01:53.031Z,10.94
2017-10-22T01:02:53.031Z,10.94
2017-10-22T01:03:53.032Z,10.90
2017-10-22T01:04:53.031Z,10.86
2017-10-22T01:05:53.032Z,10.94
2017-10-22T01:06:53.032Z,10.94
2017-10-22T01:07:53.030Z,10.94
2017-10-22T01:08:53.033Z,10.90
2017-10-22T01:09:53.032Z,10.84
2017-10-22T01:10:53.033Z,10.87
2017-10-22T01:11:53.032Z,10.82
2017-10-22T01:12:53.032Z,10.76
2017-10-22T01:13:53.039Z,10.76
2017-10-22T01:14:53.033Z,10.71
2017-10-22T01:15:53.032Z,10.59
2017-10-22T01:16:53.041Z,10.64
2017-10-22T01:17:53.033Z,10.69
2017-10-22T01:18:53.033Z,10.59
2017-10-22T01:19:53.034Z,10.68
2017-10-22T01:20:53.033Z,10.61
2017-10-22T01:21:53.044Z,10.71
2017-10-22T01:22:53.037Z,10.64
2017-10-22T01:23:53.032Z,10.62
2017-10-22T01:24:53.033Z,10.65
2017-10-22T01:25:53.036Z,10.64
2017-10-22T01:26:53.034Z,10.58
2017-10-22T01:27:53.034Z,10.64
2017-10-22T01:28:53.034Z,10.51
2017-10-22T01:29:53.033Z,10.59
2017-10-22T01:30:53.034Z,10.57
2017-10-22T01:31:53.033Z,10.45
2017-10-22T01:32:53.034Z,10.46
2017-10-22T01:33:53.033Z,10.55
2017-10-22T01:34:53.032Z,10.48
2017-10-22T01:35:53.032Z,10.53
2017-10-22T01:36:53.045Z,10.49
2017-10-22T01:37:53.033Z,10.57
2017-10-22T01:38:53.033Z,10.48
2017-10-22T01:39:53.032Z,10.43
2017-10-22T01:40:53.031Z,10.43
2017-10-22T01:41:53.032Z,10.34
2017-10-22T01:42:53.032Z,10.34
2017-10-22T01:43:53.031Z,10.30
2017-10-22T01:44:53.033Z,10.25
2017-10-22T01:45:53.032Z,10.27
2017-10-22T01:46:53.030Z,10.17
2017-10-22T01:47:53.032Z,10.18
2017-10-22T01:48:53.030Z,10.12
2017-10-22T01:49:53.030Z,10.12
2017-10-22T01:50:53.031Z,10.24
2017-10-22T01:51:53.029Z,10.21
2017-10-22T01:52:53.029Z,10.21
2017-10-22T01:53:53.029Z,10.06
2017-10-22T01:54:53.029Z,10.00
2017-10-22T01:55:53.028Z,10.02
2017-10-22T01:56:53.027Z,10.02
2017-10-22T01:57:53.027Z,9.94
2017-10-22T01:58:53.030Z,9.92
2017-10-22T01:59:53.026Z,9.81
2017-10-22T02:00:53.026Z,9.76
2017-10-22T02:01:53.026Z,9.84
2017-10-22T02:02:53.032Z,9.82
2017-10-22T02:03:53.025Z,9.87
2017-10-22T02:04:53.023Z,9.73
2017-10-22T02:05:53.023Z,9.73
2017-10-22T02:06:53.023Z,9.77
2017-10-22T02:07:53.021Z,9.73
2017-10-22T02:08:53.022Z,9.72
2017-10-22T02:09:53.021Z,9.76
2017-10-22T02:10:53.021Z,9.74
2017-10-22T02:11:53.019Z,9.80
2017-10-22T02:12:53.018Z,9.67
2017-10-22T02:13:53.018Z,9.66
2017-10-22T02:14:53.016Z,9.62
2017-10-22T02:15:53.015Z,9.62
2017-10-22T02:16:53.015Z,9.74
2017-10-22T02:17:53.016Z,9.72
2017-10-22T02:18:53.013Z,9.62
2017-10-22T02:19:53.012Z,9.69
2017-10-22T02:20:53.012Z,9.80
2017-10-22T02:21:53.010Z,9.87
2017-10-22T02:22:53.017Z,9.85
2017-10-22T02:23:53.008Z,9.87
2017-10-22T02:24:53.009Z,9.81
2017-10-22T02:25:53.007Z,9.91
2017-10-22T02:26:53.008Z,9.97
2017-10-22T02:27:53.007Z,9.97
2017-10-22T02:28:53.006Z,9.94
2017-10-22T02:29:53.005Z,9.92
2017-10-22T02:30:53.006Z,9.94
2017-10-22T02:31:53.004Z,9.97
2017-10-22T02:32:53.003Z,9.95
2017-10-22T02:33:53.003Z,9.97
2017-10-22T02:34:53.002Z,9.88
2017-10-22T02:35:53.000Z,9.92
2017-10-22T02:36:53.002Z,9.92
2017-10-22T02:37:53.000Z,10.02
2017-10-22T02:38:53.001Z,10.07
2017-10-22T02:39:53.001Z,10.09
2017-10-22T02:40:52.998Z,10.10
2017-10-22T02:41:53.000Z,10.17
2017-10-22T02:42:52.999Z,10.12
2017-10-22T02:43:52.998Z,10.20
2017-10-22T02:44:53.003Z,10.06
2017-10-22T02:45:52.998Z,10.20
2017-10-22T02:46:52.997Z,10.23
2017-10-22T02:47:52.996Z,10.28
2017-10-22T02:48:52.996Z,10.17
2017-10-22T02:49:52.995Z,10.24
2017-10-22T02:50:52.996Z,10.17
2017-10-22T02:51:52.995Z,10.24
2017-10-22T02:52:52.995Z,10.23
2017-10-22T02:53:52.995Z,10.28
2017-10-22T02:54:52.995Z,10.24
2017-10-22T02:55:52.994Z,10.27
2017-10-22T02:56:52.995Z,10.24
2017-10-22T02:57:52.994Z,10.38
2017-10-22T02:58:52.994Z,10.39
2017-10-22T02:59:52.993Z,10.41
2017-10-22T03:00:52.991Z,10.33
2017-10-22T03:01:52.994Z,10.41
2017-10-22T03:02:52.993Z,10.39
2017-10-22T03:03:52.992Z,10.36
2017-10-22T03:04:52.992Z,10.41
2017-10-22T03:05:52.993Z,10.46
2017-10-22T03:06:52.992Z,10.41
2017-10-22T03:07:52.992Z,10.38
2017-10-22T03:08:52.992Z,10.49
2017-10-22T03:09:52.992Z,10.42
2017-10-22T03:10:52.999Z,10.39
2017-10-22T03:11:53.010Z,10.38
2017-10-22T03:12:52.990Z,10.34
2017-10-22T03:13:52.992Z,10.20
2017-10-22T03:14:52.991Z,10.27
2017-10-22T03:15:52.990Z,10.27
2017-10-22T03:16:52.991Z,10.24
2017-10-22T03:17:52.990Z,10.28
2017-10-22T03:18:52.990Z,10.34
2017-10-22T03:19:52.990Z,10.23
2017-10-22T03:20:52.990Z,10.13
2017-10-22T03:21:52.991Z,10.06
2017-10-22T03:22:52.990Z,9.94
2017-10-22T03:23:52.989Z,9.84
2017-10-22T03:24:52.991Z,9.74
2017-10-22T03:25:52.994Z,9.62
2017-10-22T03:26:52.989Z,9.51
2017-10-22T03:27:52.990Z,9.52
2017-10-22T03:28:52.989Z,9.52
2017-10-22T03:29:52.997Z,9.47
2017-10-22T03:30:53.290Z,9.54
2017-10-22T03:31:52.987Z,9.51
2017-10-22T03:32:52.987Z,9.49
2017-10-22T03:33:52.986Z,9.51
2017-10-22T03:34:52.987Z,9.54
2017-10-22T03:35:52.984Z,9.52
2017-10-22T03:36:52.995Z,9.55
2017-10-22T03:37:52.989Z,9.55
2017-10-22T03:38:52.985Z,9.70
2017-10-22T03:39:52.983Z,9.63
2017-10-22T03:40:52.982Z,9.63
2017-10-22T03:41:52.983Z,9.55
2017-10-22T03:42:52.982Z,9.55
2017-10-22T03:43:52.981Z,9.67
2017-10-22T03:44:52.982Z,9.74
2017-10-22T03:45:52.980Z,9.87
2017-10-22T03:46:52.981Z,9.91
2017-10-22T03:47:52.978Z,10.12
2017-10-22T03:48:52.980Z,10.13
2017-10-22T03:49:52.978Z,10.27
2017-10-22T03:50:52.979Z,10.23
2017-10-22T03:51:52.978Z,10.21
2017-10-22T03:52:52.977Z,10.31
2017-10-22T03:53:52.976Z,10.23
2017-10-22T03:54:52.977Z,10.10
2017-10-22T03:55:52.974Z,10.13
2017-10-22T03:56:52.976Z,10.10
2017-10-22T03:57:52.975Z,10.23
2017-10-22T03:58:52.975Z,10.25
2017-10-22T03:59:52.974Z,10.31
2017-10-22T04:00:52.973Z,10.24
2017-10-22T04:01:52.973Z,10.24
2017-10-22T04:02:52.974Z,10.24
2017-10-22T04:03:52.973Z,10.24
2017-10-22T04:04:52.979Z,10.21
2017-10-22T04:05:52.974Z,10.15
2017-10-22T04:06:52.971Z,10.09
2017-10-22T04:07:52.979Z,9.95
2017-10-22T04:08:52.972Z,9.97
2017-10-22T04:09:52.975Z,9.94
2017-10-22T04:10:52.972Z,9.97
2017-10-22T04:11:52.970Z,9.92
2017-10-22T04:12:52.970Z,9.85
2017-10-22T04:13:52.971Z,9.97
2017-10-22T04:14:52.971Z,9.92
2017-10-22T04:15:52.967Z,9.99
2017-10-22T04:16:52.969Z,10.09
2017-10-22T04:17:52.970Z,10.06
2017-10-22T04:18:52.969Z,10.09
2017-10-22T04:19:52.968Z,10.13
2017-10-22T04:20:52.966Z,10.13
2017-10-22T04:21:52.968Z,10.18
2017-10-22T04:22:52.968Z,10.13
2017-10-22T04:23:52.967Z,10.10
2017-10-22T04:24:52.967Z,10.02
2017-10-22T04:25:52.967Z,10.12
2017-10-22T04:26:52.967Z,10.09
2017-10-22T04:27:52.965Z,10.05
2017-10-22T04:28:52.965Z,10.06
2017-10-22T04:29:52.966Z,10.05
2017-10-22T04:30:52.971Z,10.09
2017-10-22T04:31:52.964Z,10.06
2017-10-22T04:32:52.964Z,10.02
2017-10-22T04:33:52.964Z,10.02
2017-10-22T04:34:52.965Z,10.03
2017-10-22T04:35:52.963Z,9.84
2017-10-22T04:36:52.963Z,9.84
2017-10-22T04:37:52.964Z,9.87
2017-10-22T04:38:52.968Z,9.76
2017-10-22T04:39:52.962Z,9.80
2017-10-22T04:40:52.962Z,9.73
2017-10-22T04:41:52.962Z,9.84
2017-10-22T04:42:52.961Z,9.92
2017-10-22T04:43:52.961Z,10.02
2017-10-22T04:44:52.960Z,9.95
2017-10-22T04:45:52.961Z,9.91
2017-10-22T04:46:52.959Z,10.03
2017-10-22T04:47:52.958Z,9.94
2017-10-22T04:48:52.959Z,9.87
2017-10-22T04:49:52.964Z,9.87
2017-10-22T04:50:52.958Z,9.84
2017-10-22T04:51:53.006Z,9.84
2017-10-22T04:52:52.956Z,9.82
2017-10-22T04:53:52.956Z,10.00
2017-10-22T04:54:52.958Z,9.95
2017-10-22T04:55:52.956Z,10.05
2017-10-22T04:56:52.959Z,10.02
2017-10-22T04:57:52.954Z,10.13
2017-10-22T04:58:52.955Z,10.18
2017-10-22T04:59:52.954Z,10.10
2017-10-22T05:00:52.953Z,10.23
2017-10-22T05:01:52.954Z,10.17
2017-10-22T05:02:52.954Z,10.17
2017-10-22T05:03:52.953Z,10.06
2017-10-22T05:04:52.952Z,10.02
2017-10-22T05:05:52.952Z,9.82
2017-10-22T05:06:52.954Z,9.70
2017-10-22T05:07:52.951Z,9.77
2017-10-22T05:08:52.957Z,9.74
2017-10-22T05:09:52.953Z,9.66
2017-10-22T05:10:52.952Z,9.63
2017-10-22T05:11:52.949Z,9.59
2017-10-22T05:12:52.960Z,9.70
2017-10-22T05:13:52.950Z,9.62
2017-10-22T05:14:52.950Z,9.69
2017-10-22T05:15:52.948Z,9.66
2017-10-22T05:16:52.948Z,9.62
2017-10-22T05:17:52.948Z,9.62
2017-10-22T05:18:52.948Z,9.69
2017-10-22T05:19:52.947Z,9.64
2017-10-22T05:20:52.948Z,9.63
2017-10-22T05:21:52.947Z,9.69
2017-10-22T05:22:52.945Z,9.66
2017-10-22T05:23:52.949Z,9.76
2017-10-22T05:24:52.944Z,9.74
2017-10-22T05:25:52.944Z,9.74
2017-10-22T05:26:52.945Z,9.76
2017-10-22T05:27:52.942Z,9.66
2017-10-22T05:28:52.942Z,9.63
2017-10-22T05:29:52.947Z,9.72
2017-10-22T05:30:52.943Z,9.80
2017-10-22T05:31:52.940Z,9.85
2017-10-22T05:32:52.942Z,9.84
2017-10-22T05:33:52.942Z,9.87
2017-10-22T05:34:52.941Z,9.82
2017-10-22T05:35:52.940Z,9.84
2017-10-22T05:36:52.940Z,9.84
2017-10-22T05:37:52.939Z,9.82
2017-10-22T05:38:52.938Z,9.87
2017-10-22T05:39:52.939Z,9.84
2017-10-22T05:40:52.938Z,9.84
2017-10-22T05:41:52.938Z,9.77
2017-10-22T05:42:52.938Z,9.70
2017-10-22T05:43:52.936Z,9.85
2017-10-22T05:44:52.937Z,9.84
2017-10-22T05:45:52.935Z,9.88
2017-10-22T05:46:52.936Z,9.87
2017-10-22T05:47:52.936Z,9.81
2017-10-22T05:48:52.935Z,9.87
2017-10-22T05:49:52.942Z,9.81
2017-10-22T05:50:52.935Z,9.91
2017-10-22T05:51:52.933Z,9.84
2017-10-22T05:52:52.933Z,9.90
2017-10-22T05:53:52.933Z,9.80
2017-10-22T05:54:52.932Z,9.91
2017-10-22T05:55:52.938Z,9.95
2017-10-22T05:56:52.932Z,9.99
2017-10-22T05:57:52.932Z,9.84
2017-10-22T05:58:52.932Z,9.77
2017-10-22T05:59:52.930Z,9.84
2017-10-22T06:00:52.929Z,9.73
2017-10-22T06:01:52.930Z,9.82
2017-10-22T06:02:52.931Z,9.87
2017-10-22T06:03:52.930Z,9.87
2017-10-22T06:04:52.928Z,9.84
2017-10-22T06:05:52.929Z,9.84
2017-10-22T06:06:52.932Z,9.84
2017-10-22T06:07:52.927Z,9.87
2017-10-22T06:08:52.926Z,9.80
2017-10-22T06:09:52.927Z,9.82
2017-10-22T06:10:52.926Z,9.72
2017-10-22T06:11:52.926Z,9.72
2017-10-22T06:12:52.925Z,9.76
2017-10-22T06:13:52.924Z,9.67
2017-10-22T06:14:52.924Z,9.69
2017-10-22T06:15:52.924Z,9.63
2017-10-22T06:16:52.922Z,9.66
2017-10-22T06:17:52.923Z,9.69
2017-10-22T06:18:52.924Z,9.70
2017-10-22T06:19:52.922Z,9.70
2017-10-22T06:20:52.921Z,9.72
2017-10-22T06:21:52.920Z,9.80
2017-10-22T06:22:52.921Z,9.82
2017-10-22T06:23:52.921Z,9.82
2017-10-22T06:24:52.919Z,9.99
2017-10-22T06:25:52.920Z,9.92
2017-10-22T06:26:52.919Z,10.02
2017-10-22T06:27:52.917Z,9.94
2017-10-22T06:28:52.918Z,9.99
2017-10-22T06:29:52.918Z,10.02
2017-10-22T06:30:52.917Z,10.06
2017-10-22T06:31:52.915Z,10.00
2017-10-22T06:32:52.915Z,10.05
2017-10-22T06:33:52.914Z,9.95
2017-10-22T06:34:52.916Z,9.90
2017-10-22T06:35:52.915Z,9.84
2017-10-22T06:36:52.914Z,9.76
2017-10-22T06:37:52.913Z,9.76
2017-10-22T06:38:52.919Z,9.74
2017-10-22T06:39:52.914Z,9.74
2017-10-22T06:40:52.915Z,9.76
2017-10-22T06:41:52.912Z,9.70
2017-10-22T06:42:52.913Z,9.74
2017-10-22T06:43:52.913Z,9.85
2017-10-22T06:44:52.912Z,9.82
2017-10-22T06:45:52.910Z,9.82
2017-10-22T06:46:52.911Z,9.84
2017-10-22T06:47:52.909Z,9.95
2017-10-22T06:48:52.910Z,9.97
2017-10-22T06:49:52.909Z,10.00
2017-10-22T06:50:52.909Z,10.05
2017-10-22T06:51:52.908Z,10.06
2017-10-22T06:52:52.910Z,10.09
2017-10-22T06:53:52.908Z,10.06
2017-10-22T06:54:52.906Z,10.15
2017-10-22T06:55:52.908Z,10.12
2017-10-22T06:56:52.905Z,10.12
2017-10-22T06:57:52.906Z,10.25
2017-10-22T06:58:52.906Z,10.27
2017-10-22T06:59:52.905Z,10.30
2017-10-22T07:00:52.912Z,10.25
2017-10-22T07:01:52.906Z,10.25
2017-10-22T07:02:52.905Z,10.36
2017-10-22T07:03:52.904Z,10.25
2017-10-22T07:04:52.904Z,10.21
2017-10-22T07:05:52.903Z,10.25
2017-10-22T07:06:52.904Z,10.25
2017-10-22T07:07:52.903Z,10.42
2017-10-22T07:08:52.904Z,10.39
2017-10-22T07:09:52.903Z,10.25
2017-10-22T07:10:52.903Z,10.39
2017-10-22T07:11:52.903Z,10.36
2017-10-22T07:12:52.902Z,10.38
2017-10-22T07:13:52.902Z,10.38
2017-10-22T07:14:52.903Z,10.51
2017-10-22T07:15:52.902Z,10.42
2017-10-22T07:16:52.901Z,10.38
2017-10-22T07:17:52.904Z,10.24
2017-10-22T07:18:52.901Z,10.20
2017-10-22T07:19:52.899Z,10.05
2017-10-22T07:20:52.904Z,10.07
2017-10-22T07:21:52.900Z,9.97
2017-10-22T07:22:52.906Z,9.95
2017-10-22T07:23:52.898Z,10.05
2017-10-22T07:24:52.898Z,10.06
2017-10-22T07:25:52.898Z,10.05
2017-10-22T07:26:52.898Z,10.10
2017-10-22T07:27:52.897Z,10.02
2017-10-22T07:28:52.897Z,10.06
2017-10-22T07:29:52.897Z,9.99
2017-10-22T07:30:52.896Z,10.05
2017-10-22T07:31:52.896Z,10.15
2017-10-22T07:32:52.897Z,10.21
2017-10-22T07:33:52.895Z,10.10
2017-10-22T07:34:52.895Z,10.12
2017-10-22T07:35:52.895Z,10.12
2017-10-22T07:36:52.913Z,10.10
2017-10-22T07:37:52.893Z,10.12
2017-10-22T07:38:52.894Z,10.21
2017-10-22T07:39:52.892Z,10.17
2017-10-22T07:40:52.892Z,10.28
2017-10-22T07:41:52.893Z,10.17
2017-10-22T07:42:52.892Z,10.21
2017-10-22T07:43:52.893Z,10.21
2017-10-22T07:44:52.891Z,10.31
2017-10-22T07:45:52.891Z,10.36
2017-10-22T07:46:52.889Z,10.38
2017-10-22T07:47:52.896Z,10.38
2017-10-22T07:48:52.889Z,10.39
2017-10-22T07:49:52.888Z,10.39
2017-10-22T07:50:52.891Z,10.36
2017-10-22T07:51:52.887Z,10.55
2017-10-22T07:52:52.889Z,10.43
2017-10-22T07:53:52.889Z,10.51
2017-10-22T07:54:52.888Z,10.55
2017-10-22T07:55:52.886Z,10.51
2017-10-22T07:56:52.886Z,10.61
2017-10-22T07:57:52.886Z,10.57
2017-10-22T07:58:52.886Z,10.62
2017-10-22T07:59:52.885Z,10.67
2017-10-22T08:00:52.887Z,10.58
2017-10-22T08:01:52.886Z,10.64
2017-10-22T08:02:52.886Z,10.59
2017-10-22T08:03:52.888Z,10.68
2017-10-22T08:04:52.886Z,10.62
2017-10-22T08:05:52.885Z,10.59
2017-10-22T08:06:52.901Z,10.55
2017-10-22T08:07:52.885Z,10.41
2017-10-22T08:08:52.885Z,10.45
2017-10-22T08:09:52.886Z,10.31
2017-10-22T08:10:52.886Z,10.30
2017-10-22T08:11:52.884Z,10.30
2017-10-22T08:12:52.883Z,10.30
2017-10-22T08:13:52.885Z,10.39
2017-10-22T08:14:52.884Z,10.36
2017-10-22T08:15:52.882Z,10.39
2017-10-22T08:16:52.882Z,10.41
2017-10-22T08:17:52.890Z,10.36
2017-10-22T08:18:52.883Z,10.38
2017-10-22T08:19:52.884Z,10.30
2017-10-22T08:20:52.882Z,10.25
2017-10-22T08:21:52.882Z,10.21
2017-10-22T08:22:52.883Z,10.21
2017-10-22T08:23:52.881Z,10.21
2017-10-22T08:24:52.888Z,10.20
2017-10-22T08:25:52.885Z,10.21
2017-10-22T08:26:52.881Z,10.21
2017-10-22T08:27:52.879Z,10.17
2017-10-22T08:28:52.878Z,10.17
2017-10-22T08:29:52.879Z,10.17
2017-10-22T08:30:52.879Z,10.21
2017-10-22T08:31:52.876Z,10.23
2017-10-22T08:32:52.877Z,10.17
2017-10-22T08:33:52.878Z,10.10
2017-10-22T08:34:52.877Z,10.13
2017-10-22T08:35:52.875Z,10.10
2017-10-22T08:36:52.876Z,10.13
2017-10-22T08:37:52.880Z,10.24
2017-10-22T08:38:52.874Z,10.09
2017-10-22T08:39:52.874Z,10.12
2017-10-22T08:40:52.872Z,10.21
2017-10-22T08:41:52.871Z,10.06
2017-10-22T08:42:52.873Z,10.09
2017-10-22T08:43:52.870Z,10.07
2017-10-22T08:44:52.870Z,10.12
2017-10-22T08:45:52.871Z,10.12
2017-10-22T08:46:52.871Z,10.10
2017-10-22T08:47:52.868Z,10.09
2017-10-22T08:48:52.868Z,10.12
2017-10-22T08:49:52.867Z,10.13
2017-10-22T08:50:52.868Z,10.12
2017-10-22T08:51:52.866Z,10.13
2017-10-22T08:52:52.864Z,10.12
2017-10-22T08:53:52.866Z,10.20
2017-10-22T08:54:52.865Z,10.12
2017-10-22T08:55:52.863Z,10.17
2017-10-22T08:56:52.862Z,10.12
2017-10-22T08:57:52.862Z,10.10
2017-10-22T08:58:52.862Z,10.06
2017-10-22T08:59:52.861Z,10.09
2017-10-22T09:00:52.859Z,9.99
2017-10-22T09:01:52.859Z,10.02
2017-10-22T09:02:52.859Z,9.99
2017-10-22T09:03:52.857Z,10.05
2017-10-22T09:04:52.858Z,9.95
2017-10-22T09:05:52.856Z,9.97
2017-10-22T09:06:52.856Z,10.05
2017-10-22T09:07:52.854Z,10.06
2017-10-22T09:08:52.853Z,10.03
2017-10-22T09:09:52.852Z,10.07
2017-10-22T09:10:52.854Z,10.05
2017-10-22T09:11:52.852Z,10.02
2017-10-22T09:12:52.852Z,9.97
2017-10-22T09:13:52.858Z,9.97
2017-10-22T09:14:52.851Z,9.85
2017-10-22T09:15:52.849Z,9.85
2017-10-22T09:16:52.850Z,9.87
2017-10-22T09:17:52.848Z,9.85
2017-10-22T09:18:52.847Z,9.85
2017-10-22T09:19:52.846Z,9.70
2017-10-22T09:20:52.846Z,9.73
2017-10-22T09:21:52.844Z,9.69
2017-10-22T09:22:52.845Z,9.63
2017-10-22T09:23:52.843Z,9.66
2017-10-22T09:24:52.848Z,9.62
2017-10-22T09:25:52.842Z,9.59
2017-10-22T09:26:52.840Z,9.66
2017-10-22T09:27:52.838Z,9.55
2017-10-22T09:28:52.838Z,9.58
2017-10-22T09:29:52.839Z,9.49
2017-10-22T09:30:52.836Z,9.34
2017-10-22T09:31:52.835Z,9.33
2017-10-22T09:32:52.835Z,9.27
2017-10-22T09:33:52.843Z,9.24
2017-10-22T09:34:52.832Z,9.22
2017-10-22T09:35:52.830Z,9.19
2017-10-22T09:36:52.831Z,9.26
2017-10-22T09:37:52.829Z,9.09
2017-10-22T09:38:52.832Z,9.13
2017-10-22T09:39:52.826Z,9.08
2017-10-22T09:40:52.825Z,9.03
2017-10-22T09:41:52.824Z,9.12
2017-10-22T09:42:52.822Z,9.08
2017-10-22T09:43:52.821Z,9.03
2017-10-22T09:44:52.819Z,9.03
2017-10-22T09:45:52.818Z,9.11
2017-10-22T09:46:52.818Z,9.02
2017-10-22T09:47:52.823Z,9.03
2017-10-22T09:48:52.814Z,9.08
2017-10-22T09:49:52.813Z,9.09
2017-10-22T09:50:52.813Z,9.24
2017-10-22T09:51:52.810Z,9.24
2017-10-22T09:52:52.808Z,9.29
2017-10-22T09:53:52.807Z,9.36
2017-10-22T09:54:52.807Z,9.37
2017-10-22T09:55:52.806Z,9.40
2017-10-22T09:56:52.804Z,9.49
2017-10-22T09:57:52.802Z,9.48
2017-10-22T09:58:52.802Z,9.51
2017-10-22T09:59:52.800Z,9.49
2017-10-22T10:00:52.800Z,9.52
2017-10-22T10:01:52.799Z,9.64
2017-10-22T10:02:52.797Z,9.63
2017-10-22T10:03:52.797Z,9.76
2017-10-22T10:04:52.794Z,9.77
2017-10-22T10:05:52.795Z,9.77
2017-10-22T10:06:52.792Z,9.82
2017-10-22T10:07:52.792Z,9.82
2017-10-22T10:08:52.792Z,9.82
2017-10-22T10:09:52.792Z,9.97
2017-10-22T10:10:52.790Z,9.88
2017-10-22T10:11:52.793Z,9.87
2017-10-22T10:12:52.790Z,9.82
2017-10-22T10:13:52.789Z,9.73
2017-10-22T10:14:52.789Z,9.77
2017-10-22T10:15:52.787Z,9.74
2017-10-22T10:16:52.788Z,9.73
2017-10-22T10:17:52.786Z,9.73
2017-10-22T10:18:52.785Z,9.72
2017-10-22T10:19:52.785Z,9.84
2017-10-22T10:20:52.784Z,9.90
2017-10-22T10:21:52.783Z,9.94
2017-10-22T10:22:52.784Z,9.94
2017-10-22T10:23:52.781Z,9.99
2017-10-22T10:24:52.791Z,9.94
2017-10-22T10:25:52.781Z,9.97
2017-10-22T10:26:52.779Z,9.95
2017-10-22T10:27:52.778Z,9.95
2017-10-22T10:28:52.777Z,10.07
2017-10-22T10:29:52.777Z,10.06
2017-10-22T10:30:52.777Z,10.10
2017-10-22T10:31:52.775Z,10.09
2017-10-22T10:32:52.775Z,10.12
2017-10-22T10:33:52.774Z,10.28
2017-10-22T10:34:52.774Z,10.21
2017-10-22T10:35:52.773Z,10.21
2017-10-22T10:36:52.773Z,10.23
2017-10-22T10:37:52.773Z,10.24
2017-10-22T10:38:52.772Z,10.28
2017-10-22T10:39:52.771Z,10.25
2017-10-22T10:40:52.770Z,10.25
2017-10-22T10:41:52.770Z,10.24
2017-10-22T10:42:52.771Z,10.23
2017-10-22T10:43:52.769Z,10.28
2017-10-22T10:44:52.768Z,10.33
2017-10-22T10:45:52.769Z,10.28
2017-10-22T10:46:52.773Z,10.21
2017-10-22T10:47:52.765Z,10.30
2017-10-22T10:48:52.767Z,10.23
2017-10-22T10:49:52.767Z,10.30
2017-10-22T10:50:52.769Z,10.27
2017-10-22T10:51:52.765Z,10.27
2017-10-22T10:52:52.764Z,10.33
2017-10-22T10:53:52.765Z,10.28
2017-10-22T10:54:52.764Z,10.38
2017-10-22T10:55:52.763Z,10.39
2017-10-22T10:56:52.761Z,10.34
2017-10-22T10:57:52.761Z,10.23
2017-10-22T10:58:52.763Z,10.25
2017-10-22T10:59:52.760Z,10.38
2017-10-22T11:00:52.760Z,10.36
2017-10-22T11:01:52.761Z,10.48
2017-10-22T11:02:52.759Z,10.43
2017-10-22T11:03:52.758Z,10.42
2017-10-22T11:04:52.759Z,10.51
2017-10-22T11:05:52.758Z,10.53
2017-10-22T11:06:52.758Z,10.48
2017-10-22T11:07:52.758Z,10.43
2017-10-22T11:08:52.764Z,10.55
2017-10-22T11:09:52.756Z,10.58
2017-10-22T11:10:52.757Z,10.43
2017-10-22T11:11:52.762Z,10.45
2017-10-22T11:12:52.755Z,10.41
2017-10-22T11:13:52.754Z,10.36
2017-10-22T11:14:52.754Z,10.43
2017-10-22T11:15:52.752Z,10.53
2017-10-22T11:16:52.753Z,10.59
2017-10-22T11:17:52.754Z,10.59
2017-10-22T11:18:52.753Z,10.64
2017-10-22T11:19:52.751Z,10.67
2017-10-22T11:20:52.752Z,10.69
2017-10-22T11:21:52.752Z,10.59
2017-10-22T11:22:52.752Z,10.67
2017-10-22T11:23:52.749Z,10.61
2017-10-22T11:24:52.749Z,10.51
2017-10-22T11:25:52.749Z,10.58
2017-10-22T11:26:52.749Z,10.48
2017-10-22T11:27:52.748Z,10.53
2017-10-22T11:28:52.747Z,10.67
2017-10-22T11:29:52.748Z,10.68
2017-10-22T11:30:52.748Z,10.58
2017-10-22T11:31:52.746Z,10.59
2017-10-22T11:32:52.746Z,10.49
2017-10-22T11:33:52.747Z,10.62
2017-10-22T11:34:52.745Z,10.72
2017-10-22T11:35:52.745Z,10.71
2017-10-22T11:36:52.745Z,10.62
2017-10-22T11:37:52.744Z,10.61
2017-10-22T11:38:52.744Z,10.61
2017-10-22T11:39:52.743Z,10.65
2017-10-22T11:40:52.743Z,10.75
2017-10-22T11:41:52.744Z,10.77
2017-10-22T11:42:52.743Z,10.69
2017-10-22T11:43:52.741Z,10.62
2017-10-22T11:44:52.742Z,10.62
2017-10-22T11:45:52.742Z,10.68
2017-10-22T11:46:52.741Z,10.64
2017-10-22T11:47:52.740Z,10.69
2017-10-22T11:48:52.740Z,10.65
2017-10-22T11:49:52.739Z,10.65
2017-10-22T11:50:52.739Z,10.64
2017-10-22T11:51:52.739Z,10.67
2017-10-22T11:52:52.739Z,10.69
2017-10-22T11:53:52.745Z,10.62
2017-10-22T11:54:52.740Z,10.68
2017-10-22T11:55:52.738Z,10.59
2017-10-22T11:56:52.737Z,10.65
2017-10-22T11:57:52.742Z,10.57
2017-10-22T11:58:52.737Z,10.48
2017-10-22T11:59:52.736Z,10.27
2017-10-22T12:00:52.737Z,10.10
2017-10-22T12:01:52.735Z,10.07
2017-10-22T12:02:52.736Z,9.95
2017-10-22T12:03:52.734Z,9.91
2017-10-22T12:04:52.734Z,9.97
2017-10-22T12:05:52.738Z,9.84
2017-10-22T12:06:52.737Z,10.00
2017-10-22T12:07:52.732Z,9.88
2017-10-22T12:08:52.732Z,10.00
2017-10-22T12:09:52.730Z,9.94
2017-10-22T12:10:52.733Z,9.97
2017-10-22T12:11:52.728Z,9.85
2017-10-22T12:12:52.729Z,9.88
2017-10-22T12:13:52.735Z,9.88
2017-10-22T12:14:52.727Z,9.82
2017-10-22T12:15:52.727Z,9.73
2017-10-22T12:16:52.725Z,9.84
2017-10-22T12:17:52.726Z,9.80
2017-10-22T12:18:52.726Z,9.85
2017-10-22T12:19:52.725Z,9.87
2017-10-22T12:20:52.723Z,9.84
2017-10-22T12:21:52.725Z,9.88
2017-10-22T12:22:52.723Z,9.81
2017-10-22T12:23:52.721Z,9.90
2017-10-22T12:24:52.722Z,10.02
2017-10-22T12:25:52.722Z,9.97
2017-10-22T12:26:52.720Z,9.82
2017-10-22T12:27:52.719Z,9.87
2017-10-22T12:28:52.718Z,10.00
2017-10-22T12:29:52.719Z,10.02
2017-10-22T12:30:52.720Z,9.90
2017-10-22T12:31:52.716Z,9.97
2017-10-22T12:32:52.717Z,9.92
2017-10-22T12:33:52.717Z,9.99
2017-10-22T12:34:52.717Z,10.03
2017-10-22T12:35:52.720Z,9.95
2017-10-22T12:36:52.715Z,9.95
2017-10-22T12:37:52.712Z,10.03
2017-10-22T12:38:52.714Z,10.06
2017-10-22T12:39:52.712Z,10.06
2017-10-22T12:40:52.711Z,10.09
2017-10-22T12:41:52.715Z,10.12
2017-10-22T12:42:52.711Z,10.21
2017-10-22T12:43:52.715Z,10.21
2017-10-22T12:44:52.709Z,10.13
2017-10-22T12:45:52.708Z,10.21
2017-10-22T12:46:52.709Z,10.27
2017-10-22T12:47:52.705Z,10.27
2017-10-22T12:48:52.708Z,10.38
2017-10-22T12:49:52.706Z,10.39
2017-10-22T12:50:52.706Z,10.33
2017-10-22T12:51:52.704Z,10.39
2017-10-22T12:52:52.705Z,10.38
2017-10-22T12:53:52.704Z,10.45
2017-10-22T12:54:52.704Z,10.58
2017-10-22T12:55:52.703Z,10.58
2017-10-22T12:56:52.703Z,10.68
2017-10-22T12:57:52.703Z,10.68
2017-10-22T12:58:52.702Z,10.69
2017-10-22T12:59:52.700Z,10.72
2017-10-22T13:00:52.701Z,10.72
2017-10-22T13:01:52.701Z,10.64
2017-10-22T13:02:52.701Z,10.71